sensor_id;sensor_type;location;lat;lon;timestamp;P1;durP1;ratioP1;P2;durP2;ratioP2
7181;SDS011;3632;42.724;23.298;2023-04-29T00:02:12;16.00;;;8.83;;
7181;SDS011;3632;42.724;23.298;2023-04-29T00:04:39;14.53;;;9.73;;
7181;SDS011;3632;42.724;23.298;2023-04-29T00:07:07;15.70;;;9.20;;
7181;SDS011;3632;42.724;23.298;2023-04-29T00:09:34;14.73;;;8.20;;
7181;SDS011;3632;42.724;23.298;2023-04-29T00:12:01;12.43;;;8.33;;
7181;SDS011;3632;42.724;23.298;2023-04-29T00:14:29;14.10;;;8.80;;
7181;SDS011;3632;42.724;23.298;2023-04-29T00:16:55;14.60;;;9.03;;
7181;SDS011;3632;42.724;23.298;2023-04-29T00:19:22;13.57;;;8.60;;
7181;SDS011;3632;42.724;23.298;2023-04-29T00:21:49;12.87;;;8.20;;
7181;SDS011;3632;42.724;23.298;2023-04-29T00:24:20;13.93;;;7.73;;
7181;SDS011;3632;42.724;23.298;2023-04-29T00:26:47;10.77;;;6.60;;
7181;SDS011;3632;42.724;23.298;2023-04-29T00:29:14;11.67;;;6.53;;
7181;SDS011;3632;42.724;23.298;2023-04-29T00:31:41;8.73;;;7.17;;
7181;SDS011;3632;42.724;23.298;2023-04-29T00:34:08;12.57;;;7.70;;
7181;SDS011;3632;42.724;23.298;2023-04-29T00:36:35;13.07;;;9.00;;
7181;SDS011;3632;42.724;23.298;2023-04-29T00:39:02;13.70;;;9.60;;
7181;SDS011;3632;42.724;23.298;2023-04-29T00:41:30;17.50;;;10.20;;
7181;SDS011;3632;42.724;23.298;2023-04-29T00:43:58;18.70;;;10.20;;
7181;SDS011;3632;42.724;23.298;2023-04-29T00:46:25;15.63;;;11.20;;
7181;SDS011;3632;42.724;23.298;2023-04-29T00:48:58;17.87;;;10.77;;
7181;SDS011;3632;42.724;23.298;2023-04-29T00:51:26;18.43;;;10.40;;
7181;SDS011;3632;42.724;23.298;2023-04-29T00:53:53;19.37;;;10.67;;
7181;SDS011;3632;42.724;23.298;2023-04-29T00:56:20;15.30;;;10.47;;
7181;SDS011;3632;42.724;23.298;2023-04-29T00:58:50;16.37;;;10.20;;
7181;SDS011;3632;42.724;23.298;2023-04-29T01:01:17;14.13;;;8.83;;
7181;SDS011;3632;42.724;23.298;2023-04-29T01:03:46;11.27;;;8.47;;
7181;SDS011;3632;42.724;23.298;2023-04-29T01:06:16;12.77;;;8.27;;
7181;SDS011;3632;42.724;23.298;2023-04-29T01:08:58;13.13;;;8.37;;
7181;SDS011;3632;42.724;23.298;2023-04-29T01:11:38;12.83;;;8.53;;
7181;SDS011;3632;42.724;23.298;2023-04-29T01:14:27;13.80;;;8.47;;
7181;SDS011;3632;42.724;23.298;2023-04-29T01:16:55;10.93;;;7.83;;
7181;SDS011;3632;42.724;23.298;2023-04-29T01:19:30;10.77;;;7.67;;
7181;SDS011;3632;42.724;23.298;2023-04-29T01:22:10;15.27;;;8.00;;
7181;SDS011;3632;42.724;23.298;2023-04-29T01:24:40;12.20;;;7.63;;
7181;SDS011;3632;42.724;23.298;2023-04-29T01:27:10;10.60;;;6.80;;
7181;SDS011;3632;42.724;23.298;2023-04-29T01:29:47;13.47;;;6.80;;
7181;SDS011;3632;42.724;23.298;2023-04-29T01:32:24;12.47;;;6.83;;
7181;SDS011;3632;42.724;23.298;2023-04-29T01:35:05;10.40;;;6.20;;
7181;SDS011;3632;42.724;23.298;2023-04-29T01:37:39;8.67;;;6.37;;
7181;SDS011;3632;42.724;23.298;2023-04-29T01:40:18;11.73;;;7.17;;
7181;SDS011;3632;42.724;23.298;2023-04-29T01:42:50;11.80;;;7.27;;
7181;SDS011;3632;42.724;23.298;2023-04-29T01:45:26;11.10;;;7.20;;
7181;SDS011;3632;42.724;23.298;2023-04-29T01:47:55;10.90;;;7.53;;
7181;SDS011;3632;42.724;23.298;2023-04-29T01:50:23;10.60;;;7.57;;
7181;SDS011;3632;42.724;23.298;2023-04-29T01:52:50;9.50;;;7.67;;
7181;SDS011;3632;42.724;23.298;2023-04-29T01:55:19;11.23;;;7.83;;
7181;SDS011;3632;42.724;23.298;2023-04-29T01:57:46;14.73;;;7.70;;
7181;SDS011;3632;42.724;23.298;2023-04-29T02:00:13;12.83;;;7.80;;
7181;SDS011;3632;42.724;23.298;2023-04-29T02:02:41;12.07;;;7.63;;
7181;SDS011;3632;42.724;23.298;2023-04-29T02:05:08;12.20;;;7.20;;
7181;SDS011;3632;42.724;23.298;2023-04-29T02:07:35;12.67;;;7.77;;
7181;SDS011;3632;42.724;23.298;2023-04-29T02:10:02;10.60;;;7.53;;
7181;SDS011;3632;42.724;23.298;2023-04-29T02:12:31;12.20;;;8.40;;
7181;SDS011;3632;42.724;23.298;2023-04-29T02:15:14;11.00;;;7.70;;
7181;SDS011;3632;42.724;23.298;2023-04-29T02:17:41;17.00;;;8.30;;
7181;SDS011;3632;42.724;23.298;2023-04-29T02:20:08;15.43;;;9.43;;
7181;SDS011;3632;42.724;23.298;2023-04-29T02:22:36;12.03;;;8.67;;
7181;SDS011;3632;42.724;23.298;2023-04-29T02:25:03;12.57;;;8.43;;
7181;SDS011;3632;42.724;23.298;2023-04-29T02:27:31;9.13;;;6.47;;
7181;SDS011;3632;42.724;23.298;2023-04-29T02:29:58;11.93;;;6.77;;
7181;SDS011;3632;42.724;23.298;2023-04-29T02:32:27;8.67;;;7.00;;
7181;SDS011;3632;42.724;23.298;2023-04-29T02:34:54;11.37;;;6.70;;
7181;SDS011;3632;42.724;23.298;2023-04-29T02:37:20;12.77;;;8.73;;
7181;SDS011;3632;42.724;23.298;2023-04-29T02:39:48;16.23;;;8.87;;
7181;SDS011;3632;42.724;23.298;2023-04-29T02:42:15;13.63;;;7.73;;
7181;SDS011;3632;42.724;23.298;2023-04-29T02:44:44;13.13;;;8.10;;
7181;SDS011;3632;42.724;23.298;2023-04-29T02:47:11;14.90;;;8.53;;
7181;SDS011;3632;42.724;23.298;2023-04-29T02:49:39;12.73;;;9.07;;
7181;SDS011;3632;42.724;23.298;2023-04-29T02:52:06;13.40;;;10.13;;
7181;SDS011;3632;42.724;23.298;2023-04-29T02:54:33;12.27;;;8.60;;
7181;SDS011;3632;42.724;23.298;2023-04-29T02:57:00;12.40;;;9.13;;
7181;SDS011;3632;42.724;23.298;2023-04-29T02:59:27;14.00;;;8.40;;
7181;SDS011;3632;42.724;23.298;2023-04-29T03:01:54;14.17;;;8.40;;
7181;SDS011;3632;42.724;23.298;2023-04-29T03:04:22;20.70;;;14.87;;
7181;SDS011;3632;42.724;23.298;2023-04-29T03:06:51;36.37;;;28.10;;
7181;SDS011;3632;42.724;23.298;2023-04-29T03:09:17;25.77;;;19.60;;
7181;SDS011;3632;42.724;23.298;2023-04-29T03:11:45;18.37;;;14.80;;
7181;SDS011;3632;42.724;23.298;2023-04-29T03:14:12;16.03;;;12.17;;
7181;SDS011;3632;42.724;23.298;2023-04-29T03:16:39;12.03;;;8.43;;
7181;SDS011;3632;42.724;23.298;2023-04-29T03:19:06;14.60;;;8.20;;
7181;SDS011;3632;42.724;23.298;2023-04-29T03:21:34;13.17;;;6.97;;
7181;SDS011;3632;42.724;23.298;2023-04-29T03:24:03;12.83;;;7.17;;
7181;SDS011;3632;42.724;23.298;2023-04-29T03:26:30;8.17;;;6.00;;
7181;SDS011;3632;42.724;23.298;2023-04-29T03:28:58;10.27;;;6.70;;
7181;SDS011;3632;42.724;23.298;2023-04-29T03:31:25;12.20;;;6.27;;
7181;SDS011;3632;42.724;23.298;2023-04-29T03:33:52;11.77;;;7.13;;
7181;SDS011;3632;42.724;23.298;2023-04-29T03:36:19;11.90;;;6.80;;
7181;SDS011;3632;42.724;23.298;2023-04-29T03:38:47;14.20;;;7.03;;
7181;SDS011;3632;42.724;23.298;2023-04-29T03:41:15;12.37;;;6.70;;
7181;SDS011;3632;42.724;23.298;2023-04-29T03:43:43;13.60;;;7.40;;
7181;SDS011;3632;42.724;23.298;2023-04-29T03:46:10;12.40;;;10.07;;
7181;SDS011;3632;42.724;23.298;2023-04-29T03:48:37;20.10;;;12.00;;
7181;SDS011;3632;42.724;23.298;2023-04-29T03:51:05;25.43;;;16.23;;
7181;SDS011;3632;42.724;23.298;2023-04-29T03:53:33;28.43;;;13.03;;
7181;SDS011;3632;42.724;23.298;2023-04-29T03:56:01;20.37;;;12.73;;
7181;SDS011;3632;42.724;23.298;2023-04-29T03:58:30;17.50;;;11.27;;
7181;SDS011;3632;42.724;23.298;2023-04-29T04:00:57;25.00;;;16.20;;
7181;SDS011;3632;42.724;23.298;2023-04-29T04:03:24;19.60;;;11.20;;
7181;SDS011;3632;42.724;23.298;2023-04-29T04:05:52;17.07;;;10.53;;
7181;SDS011;3632;42.724;23.298;2023-04-29T04:08:19;16.93;;;9.90;;
7181;SDS011;3632;42.724;23.298;2023-04-29T04:10:46;12.63;;;9.07;;
7181;SDS011;3632;42.724;23.298;2023-04-29T04:13:13;14.60;;;8.97;;
7181;SDS011;3632;42.724;23.298;2023-04-29T04:15:42;15.03;;;8.73;;
7181;SDS011;3632;42.724;23.298;2023-04-29T04:18:15;15.63;;;8.63;;
7181;SDS011;3632;42.724;23.298;2023-04-29T04:20:42;14.63;;;8.67;;
7181;SDS011;3632;42.724;23.298;2023-04-29T04:23:09;15.27;;;8.93;;
7181;SDS011;3632;42.724;23.298;2023-04-29T04:25:36;15.50;;;9.07;;
7181;SDS011;3632;42.724;23.298;2023-04-29T04:28:04;16.53;;;10.00;;
7181;SDS011;3632;42.724;23.298;2023-04-29T04:30:34;15.63;;;10.60;;
7181;SDS011;3632;42.724;23.298;2023-04-29T04:33:03;19.47;;;11.20;;
7181;SDS011;3632;42.724;23.298;2023-04-29T04:35:30;15.37;;;9.93;;
7181;SDS011;3632;42.724;23.298;2023-04-29T04:37:57;16.40;;;9.33;;
7181;SDS011;3632;42.724;23.298;2023-04-29T04:40:24;14.60;;;9.07;;
7181;SDS011;3632;42.724;23.298;2023-04-29T04:42:52;18.37;;;10.10;;
7181;SDS011;3632;42.724;23.298;2023-04-29T04:45:19;15.73;;;9.50;;
7181;SDS011;3632;42.724;23.298;2023-04-29T04:47:46;20.73;;;9.73;;
7181;SDS011;3632;42.724;23.298;2023-04-29T04:50:15;16.17;;;9.07;;
7181;SDS011;3632;42.724;23.298;2023-04-29T04:52:42;12.23;;;9.00;;
7181;SDS011;3632;42.724;23.298;2023-04-29T04:55:09;14.50;;;8.87;;
7181;SDS011;3632;42.724;23.298;2023-04-29T04:57:36;17.23;;;10.20;;
7181;SDS011;3632;42.724;23.298;2023-04-29T05:00:04;12.17;;;7.90;;
7181;SDS011;3632;42.724;23.298;2023-04-29T05:02:32;13.80;;;7.97;;
7181;SDS011;3632;42.724;23.298;2023-04-29T05:04:59;17.33;;;7.53;;
7181;SDS011;3632;42.724;23.298;2023-04-29T05:07:27;14.90;;;8.20;;
7181;SDS011;3632;42.724;23.298;2023-04-29T05:09:54;16.03;;;10.70;;
7181;SDS011;3632;42.724;23.298;2023-04-29T05:12:21;15.87;;;9.10;;
7181;SDS011;3632;42.724;23.298;2023-04-29T05:14:51;14.70;;;8.17;;
7181;SDS011;3632;42.724;23.298;2023-04-29T05:17:19;11.53;;;7.60;;
7181;SDS011;3632;42.724;23.298;2023-04-29T05:19:46;12.67;;;7.53;;
7181;SDS011;3632;42.724;23.298;2023-04-29T05:22:13;14.37;;;7.67;;
7181;SDS011;3632;42.724;23.298;2023-04-29T05:24:42;13.70;;;7.20;;
7181;SDS011;3632;42.724;23.298;2023-04-29T05:27:09;14.37;;;7.33;;
7181;SDS011;3632;42.724;23.298;2023-04-29T05:29:36;9.00;;;7.30;;
7181;SDS011;3632;42.724;23.298;2023-04-29T05:32:04;10.23;;;7.20;;
7181;SDS011;3632;42.724;23.298;2023-04-29T05:34:31;14.33;;;7.93;;
7181;SDS011;3632;42.724;23.298;2023-04-29T05:37:00;15.23;;;7.73;;
7181;SDS011;3632;42.724;23.298;2023-04-29T05:39:29;10.47;;;7.10;;
7181;SDS011;3632;42.724;23.298;2023-04-29T05:41:57;11.13;;;7.67;;
7181;SDS011;3632;42.724;23.298;2023-04-29T05:44:25;15.80;;;7.37;;
7181;SDS011;3632;42.724;23.298;2023-04-29T05:46:52;14.27;;;7.67;;
7181;SDS011;3632;42.724;23.298;2023-04-29T05:49:22;12.20;;;7.43;;
7181;SDS011;3632;42.724;23.298;2023-04-29T05:51:53;12.47;;;8.03;;
7181;SDS011;3632;42.724;23.298;2023-04-29T05:54:20;15.70;;;7.33;;
7181;SDS011;3632;42.724;23.298;2023-04-29T05:56:47;11.33;;;7.40;;
7181;SDS011;3632;42.724;23.298;2023-04-29T05:59:16;13.93;;;7.07;;
7181;SDS011;3632;42.724;23.298;2023-04-29T06:01:44;11.43;;;7.30;;
7181;SDS011;3632;42.724;23.298;2023-04-29T06:04:11;11.67;;;6.37;;
7181;SDS011;3632;42.724;23.298;2023-04-29T06:06:39;11.37;;;6.20;;
7181;SDS011;3632;42.724;23.298;2023-04-29T06:09:07;11.77;;;6.33;;
7181;SDS011;3632;42.724;23.298;2023-04-29T06:11:36;19.40;;;9.53;;
7181;SDS011;3632;42.724;23.298;2023-04-29T06:14:07;11.17;;;7.00;;
7181;SDS011;3632;42.724;23.298;2023-04-29T06:16:40;9.57;;;6.57;;
7181;SDS011;3632;42.724;23.298;2023-04-29T06:19:09;11.83;;;6.70;;
7181;SDS011;3632;42.724;23.298;2023-04-29T06:21:36;11.33;;;6.80;;
7181;SDS011;3632;42.724;23.298;2023-04-29T06:24:03;13.27;;;6.77;;
7181;SDS011;3632;42.724;23.298;2023-04-29T06:26:30;10.47;;;6.60;;
7181;SDS011;3632;42.724;23.298;2023-04-29T06:28:57;9.77;;;6.43;;
7181;SDS011;3632;42.724;23.298;2023-04-29T06:31:24;12.87;;;7.00;;
7181;SDS011;3632;42.724;23.298;2023-04-29T06:33:53;12.93;;;6.57;;
7181;SDS011;3632;42.724;23.298;2023-04-29T06:36:20;11.13;;;6.30;;
7181;SDS011;3632;42.724;23.298;2023-04-29T06:38:46;9.43;;;6.13;;
7181;SDS011;3632;42.724;23.298;2023-04-29T06:41:13;7.33;;;5.83;;
7181;SDS011;3632;42.724;23.298;2023-04-29T06:43:40;11.57;;;6.47;;
7181;SDS011;3632;42.724;23.298;2023-04-29T06:46:08;10.97;;;6.00;;
7181;SDS011;3632;42.724;23.298;2023-04-29T06:48:35;9.20;;;5.40;;
7181;SDS011;3632;42.724;23.298;2023-04-29T06:51:04;9.60;;;6.03;;
7181;SDS011;3632;42.724;23.298;2023-04-29T06:53:31;9.30;;;6.47;;
7181;SDS011;3632;42.724;23.298;2023-04-29T06:55:58;11.87;;;6.17;;
7181;SDS011;3632;42.724;23.298;2023-04-29T06:58:25;9.07;;;5.87;;
7181;SDS011;3632;42.724;23.298;2023-04-29T07:00:53;7.67;;;6.20;;
7181;SDS011;3632;42.724;23.298;2023-04-29T07:03:20;9.63;;;7.00;;
7181;SDS011;3632;42.724;23.298;2023-04-29T07:05:47;14.87;;;11.23;;
7181;SDS011;3632;42.724;23.298;2023-04-29T07:08:15;12.10;;;7.70;;
7181;SDS011;3632;42.724;23.298;2023-04-29T07:10:42;9.07;;;6.90;;
7181;SDS011;3632;42.724;23.298;2023-04-29T07:13:13;11.03;;;6.73;;
7181;SDS011;3632;42.724;23.298;2023-04-29T07:15:41;10.73;;;7.03;;
7181;SDS011;3632;42.724;23.298;2023-04-29T07:18:08;10.23;;;6.23;;
7181;SDS011;3632;42.724;23.298;2023-04-29T07:20:36;12.10;;;6.40;;
7181;SDS011;3632;42.724;23.298;2023-04-29T07:23:02;12.60;;;6.73;;
7181;SDS011;3632;42.724;23.298;2023-04-29T07:25:31;9.90;;;7.10;;
7181;SDS011;3632;42.724;23.298;2023-04-29T07:27:58;12.63;;;7.03;;
7181;SDS011;3632;42.724;23.298;2023-04-29T07:30:25;10.90;;;6.60;;
7181;SDS011;3632;42.724;23.298;2023-04-29T07:32:52;8.77;;;6.47;;
7181;SDS011;3632;42.724;23.298;2023-04-29T07:35:20;12.97;;;6.87;;
7181;SDS011;3632;42.724;23.298;2023-04-29T07:37:50;8.63;;;6.50;;
7181;SDS011;3632;42.724;23.298;2023-04-29T07:40:17;10.53;;;6.13;;
7181;SDS011;3632;42.724;23.298;2023-04-29T07:42:45;13.57;;;6.40;;
7181;SDS011;3632;42.724;23.298;2023-04-29T07:45:12;10.23;;;6.00;;
7181;SDS011;3632;42.724;23.298;2023-04-29T07:47:39;11.43;;;6.50;;
7181;SDS011;3632;42.724;23.298;2023-04-29T07:50:09;8.80;;;6.10;;
7181;SDS011;3632;42.724;23.298;2023-04-29T07:52:36;8.37;;;5.70;;
7181;SDS011;3632;42.724;23.298;2023-04-29T07:55:03;8.53;;;5.53;;
7181;SDS011;3632;42.724;23.298;2023-04-29T07:57:31;7.60;;;5.73;;
7181;SDS011;3632;42.724;23.298;2023-04-29T07:59:59;10.67;;;5.73;;
7181;SDS011;3632;42.724;23.298;2023-04-29T08:02:26;10.40;;;5.63;;
7181;SDS011;3632;42.724;23.298;2023-04-29T08:04:53;10.23;;;5.90;;
7181;SDS011;3632;42.724;23.298;2023-04-29T08:07:20;7.83;;;5.43;;
7181;SDS011;3632;42.724;23.298;2023-04-29T08:09:47;10.90;;;5.40;;
7181;SDS011;3632;42.724;23.298;2023-04-29T08:12:14;7.73;;;5.40;;
7181;SDS011;3632;42.724;23.298;2023-04-29T08:14:41;7.90;;;5.13;;
7181;SDS011;3632;42.724;23.298;2023-04-29T08:17:09;8.00;;;5.60;;
7181;SDS011;3632;42.724;23.298;2023-04-29T08:19:36;7.47;;;5.20;;
7181;SDS011;3632;42.724;23.298;2023-04-29T08:22:02;13.37;;;10.40;;
7181;SDS011;3632;42.724;23.298;2023-04-29T08:24:29;11.43;;;5.40;;
7181;SDS011;3632;42.724;23.298;2023-04-29T08:26:57;8.83;;;5.53;;
7181;SDS011;3632;42.724;23.298;2023-04-29T08:29:24;10.13;;;5.50;;
7181;SDS011;3632;42.724;23.298;2023-04-29T08:31:51;12.10;;;4.80;;
7181;SDS011;3632;42.724;23.298;2023-04-29T08:34:19;6.40;;;4.40;;
7181;SDS011;3632;42.724;23.298;2023-04-29T08:36:46;12.17;;;5.10;;
7181;SDS011;3632;42.724;23.298;2023-04-29T08:39:13;9.83;;;5.43;;
7181;SDS011;3632;42.724;23.298;2023-04-29T08:41:40;8.50;;;5.00;;
7181;SDS011;3632;42.724;23.298;2023-04-29T08:44:09;6.67;;;4.90;;
7181;SDS011;3632;42.724;23.298;2023-04-29T08:46:37;7.77;;;5.30;;
7181;SDS011;3632;42.724;23.298;2023-04-29T08:49:04;8.17;;;5.57;;
7181;SDS011;3632;42.724;23.298;2023-04-29T08:51:33;7.87;;;5.00;;
7181;SDS011;3632;42.724;23.298;2023-04-29T08:54:00;10.60;;;5.23;;
7181;SDS011;3632;42.724;23.298;2023-04-29T08:56:27;9.70;;;6.40;;
7181;SDS011;3632;42.724;23.298;2023-04-29T08:58:56;7.20;;;5.73;;
7181;SDS011;3632;42.724;23.298;2023-04-29T09:01:24;9.27;;;5.23;;
7181;SDS011;3632;42.724;23.298;2023-04-29T09:03:55;6.70;;;5.37;;
7181;SDS011;3632;42.724;23.298;2023-04-29T09:06:36;6.57;;;5.30;;
7181;SDS011;3632;42.724;23.298;2023-04-29T09:09:03;8.23;;;4.73;;
7181;SDS011;3632;42.724;23.298;2023-04-29T09:11:32;11.73;;;5.23;;
7181;SDS011;3632;42.724;23.298;2023-04-29T09:14:00;7.47;;;6.13;;
7181;SDS011;3632;42.724;23.298;2023-04-29T09:16:28;10.23;;;5.53;;
7181;SDS011;3632;42.724;23.298;2023-04-29T09:18:55;8.30;;;5.40;;
7181;SDS011;3632;42.724;23.298;2023-04-29T09:21:23;9.93;;;5.70;;
7181;SDS011;3632;42.724;23.298;2023-04-29T09:23:54;8.93;;;4.17;;
7181;SDS011;3632;42.724;23.298;2023-04-29T09:26:22;9.90;;;5.20;;
7181;SDS011;3632;42.724;23.298;2023-04-29T09:29:04;7.20;;;4.90;;
7181;SDS011;3632;42.724;23.298;2023-04-29T09:31:33;8.00;;;5.03;;
7181;SDS011;3632;42.724;23.298;2023-04-29T09:34:00;7.90;;;4.07;;
7181;SDS011;3632;42.724;23.298;2023-04-29T09:36:37;9.63;;;4.33;;
7181;SDS011;3632;42.724;23.298;2023-04-29T09:39:08;8.40;;;4.50;;
7181;SDS011;3632;42.724;23.298;2023-04-29T09:41:40;5.30;;;3.97;;
7181;SDS011;3632;42.724;23.298;2023-04-29T09:44:09;7.33;;;4.67;;
7181;SDS011;3632;42.724;23.298;2023-04-29T09:46:36;9.67;;;4.40;;
7181;SDS011;3632;42.724;23.298;2023-04-29T09:49:04;5.73;;;4.13;;
7181;SDS011;3632;42.724;23.298;2023-04-29T09:51:52;9.03;;;4.30;;
7181;SDS011;3632;42.724;23.298;2023-04-29T09:54:21;8.50;;;4.43;;
7181;SDS011;3632;42.724;23.298;2023-04-29T09:56:50;7.07;;;4.30;;
7181;SDS011;3632;42.724;23.298;2023-04-29T09:59:18;8.07;;;4.13;;
7181;SDS011;3632;42.724;23.298;2023-04-29T10:01:46;7.33;;;4.00;;
7181;SDS011;3632;42.724;23.298;2023-04-29T10:04:15;6.97;;;4.53;;
7181;SDS011;3632;42.724;23.298;2023-04-29T10:06:44;10.10;;;4.70;;
7181;SDS011;3632;42.724;23.298;2023-04-29T10:09:14;11.83;;;4.40;;
7181;SDS011;3632;42.724;23.298;2023-04-29T10:11:45;7.73;;;4.10;;
7181;SDS011;3632;42.724;23.298;2023-04-29T10:14:14;9.63;;;3.93;;
7181;SDS011;3632;42.724;23.298;2023-04-29T10:16:45;6.37;;;3.70;;
7181;SDS011;3632;42.724;23.298;2023-04-29T10:19:24;6.30;;;4.00;;
7181;SDS011;3632;42.724;23.298;2023-04-29T10:21:53;5.83;;;3.57;;
7181;SDS011;3632;42.724;23.298;2023-04-29T10:24:24;10.27;;;3.70;;
7181;SDS011;3632;42.724;23.298;2023-04-29T10:26:53;5.37;;;3.23;;
7181;SDS011;3632;42.724;23.298;2023-04-29T10:29:22;9.07;;;3.87;;
7181;SDS011;3632;42.724;23.298;2023-04-29T10:31:53;11.53;;;4.30;;
7181;SDS011;3632;42.724;23.298;2023-04-29T10:34:22;9.37;;;3.17;;
7181;SDS011;3632;42.724;23.298;2023-04-29T10:36:51;9.00;;;3.90;;
7181;SDS011;3632;42.724;23.298;2023-04-29T10:39:20;11.23;;;5.17;;
7181;SDS011;3632;42.724;23.298;2023-04-29T10:41:54;6.23;;;3.53;;
7181;SDS011;3632;42.724;23.298;2023-04-29T10:44:22;7.67;;;3.63;;
7181;SDS011;3632;42.724;23.298;2023-04-29T10:46:51;10.93;;;8.20;;
7181;SDS011;3632;42.724;23.298;2023-04-29T10:49:58;6.60;;;3.77;;
7181;SDS011;3632;42.724;23.298;2023-04-29T10:52:28;7.90;;;3.33;;
7181;SDS011;3632;42.724;23.298;2023-04-29T10:55:00;7.83;;;3.70;;
7181;SDS011;3632;42.724;23.298;2023-04-29T10:57:29;4.50;;;3.10;;
7181;SDS011;3632;42.724;23.298;2023-04-29T10:59:56;4.67;;;2.93;;
7181;SDS011;3632;42.724;23.298;2023-04-29T11:02:23;3.63;;;2.80;;
7181;SDS011;3632;42.724;23.298;2023-04-29T11:05:06;5.97;;;3.30;;
7181;SDS011;3632;42.724;23.298;2023-04-29T11:07:34;6.47;;;3.10;;
7181;SDS011;3632;42.724;23.298;2023-04-29T11:10:02;5.23;;;3.93;;
7181;SDS011;3632;42.724;23.298;2023-04-29T11:12:30;5.20;;;3.00;;
7181;SDS011;3632;42.724;23.298;2023-04-29T11:14:57;5.80;;;2.77;;
7181;SDS011;3632;42.724;23.298;2023-04-29T11:17:33;5.37;;;3.00;;
7181;SDS011;3632;42.724;23.298;2023-04-29T11:20:01;4.67;;;2.70;;
7181;SDS011;3632;42.724;23.298;2023-04-29T11:22:28;3.83;;;2.20;;
7181;SDS011;3632;42.724;23.298;2023-04-29T11:24:58;2.50;;;2.30;;
7181;SDS011;3632;42.724;23.298;2023-04-29T11:27:26;7.07;;;2.40;;
7181;SDS011;3632;42.724;23.298;2023-04-29T11:29:57;4.80;;;2.57;;
7181;SDS011;3632;42.724;23.298;2023-04-29T11:32:25;4.03;;;2.60;;
7181;SDS011;3632;42.724;23.298;2023-04-29T11:35:06;3.87;;;2.50;;
7181;SDS011;3632;42.724;23.298;2023-04-29T11:37:37;4.20;;;2.43;;
7181;SDS011;3632;42.724;23.298;2023-04-29T11:40:06;6.40;;;2.73;;
7181;SDS011;3632;42.724;23.298;2023-04-29T11:42:34;3.40;;;2.13;;
7181;SDS011;3632;42.724;23.298;2023-04-29T11:45:03;4.90;;;2.63;;
7181;SDS011;3632;42.724;23.298;2023-04-29T11:47:31;3.43;;;2.87;;
7181;SDS011;3632;42.724;23.298;2023-04-29T11:50:01;3.70;;;2.80;;
7181;SDS011;3632;42.724;23.298;2023-04-29T11:52:29;4.90;;;2.70;;
7181;SDS011;3632;42.724;23.298;2023-04-29T11:54:57;4.47;;;2.43;;
7181;SDS011;3632;42.724;23.298;2023-04-29T11:57:25;4.43;;;2.57;;
7181;SDS011;3632;42.724;23.298;2023-04-29T11:59:56;3.60;;;2.30;;
7181;SDS011;3632;42.724;23.298;2023-04-29T12:02:30;6.03;;;2.43;;
7181;SDS011;3632;42.724;23.298;2023-04-29T12:05:04;6.50;;;2.53;;
7181;SDS011;3632;42.724;23.298;2023-04-29T12:07:33;3.87;;;2.20;;
7181;SDS011;3632;42.724;23.298;2023-04-29T12:10:01;3.03;;;2.20;;
7181;SDS011;3632;42.724;23.298;2023-04-29T12:12:35;4.70;;;3.03;;
7181;SDS011;3632;42.724;23.298;2023-04-29T12:15:08;4.40;;;2.20;;
7181;SDS011;3632;42.724;23.298;2023-04-29T12:17:38;3.63;;;2.50;;
7181;SDS011;3632;42.724;23.298;2023-04-29T12:20:10;4.33;;;2.97;;
7181;SDS011;3632;42.724;23.298;2023-04-29T12:22:43;4.00;;;2.20;;
7181;SDS011;3632;42.724;23.298;2023-04-29T12:25:10;5.37;;;3.10;;
7181;SDS011;3632;42.724;23.298;2023-04-29T12:27:38;4.63;;;2.67;;
7181;SDS011;3632;42.724;23.298;2023-04-29T12:30:07;5.93;;;2.13;;
7181;SDS011;3632;42.724;23.298;2023-04-29T12:32:35;3.23;;;1.90;;
7181;SDS011;3632;42.724;23.298;2023-04-29T12:35:04;3.93;;;1.90;;
7181;SDS011;3632;42.724;23.298;2023-04-29T12:37:31;2.40;;;1.77;;
7181;SDS011;3632;42.724;23.298;2023-04-29T12:39:59;2.63;;;1.80;;
7181;SDS011;3632;42.724;23.298;2023-04-29T12:42:30;4.50;;;2.10;;
7181;SDS011;3632;42.724;23.298;2023-04-29T12:44:58;3.17;;;2.13;;
7181;SDS011;3632;42.724;23.298;2023-04-29T12:47:24;2.60;;;1.87;;
7181;SDS011;3632;42.724;23.298;2023-04-29T12:49:59;4.63;;;2.30;;
7181;SDS011;3632;42.724;23.298;2023-04-29T12:52:28;3.43;;;2.20;;
7181;SDS011;3632;42.724;23.298;2023-04-29T12:54:55;3.97;;;2.17;;
7181;SDS011;3632;42.724;23.298;2023-04-29T12:57:22;3.97;;;1.93;;
7181;SDS011;3632;42.724;23.298;2023-04-29T12:59:50;4.40;;;2.33;;
7181;SDS011;3632;42.724;23.298;2023-04-29T13:02:18;4.33;;;2.80;;
7181;SDS011;3632;42.724;23.298;2023-04-29T13:04:45;5.33;;;3.00;;
7181;SDS011;3632;42.724;23.298;2023-04-29T13:07:12;5.53;;;2.57;;
7181;SDS011;3632;42.724;23.298;2023-04-29T13:09:41;4.87;;;2.50;;
7181;SDS011;3632;42.724;23.298;2023-04-29T13:12:08;6.07;;;2.37;;
7181;SDS011;3632;42.724;23.298;2023-04-29T13:14:35;5.63;;;3.20;;
7181;SDS011;3632;42.724;23.298;2023-04-29T13:17:02;5.00;;;3.13;;
7181;SDS011;3632;42.724;23.298;2023-04-29T13:19:29;3.47;;;2.13;;
7181;SDS011;3632;42.724;23.298;2023-04-29T13:21:57;3.13;;;2.30;;
7181;SDS011;3632;42.724;23.298;2023-04-29T13:24:25;5.87;;;2.50;;
7181;SDS011;3632;42.724;23.298;2023-04-29T13:26:56;2.63;;;2.00;;
7181;SDS011;3632;42.724;23.298;2023-04-29T13:29:23;3.10;;;2.10;;
7181;SDS011;3632;42.724;23.298;2023-04-29T13:31:50;2.73;;;2.00;;
7181;SDS011;3632;42.724;23.298;2023-04-29T13:34:17;3.30;;;2.20;;
7181;SDS011;3632;42.724;23.298;2023-04-29T13:36:44;4.60;;;3.00;;
7181;SDS011;3632;42.724;23.298;2023-04-29T13:39:11;12.83;;;3.50;;
7181;SDS011;3632;42.724;23.298;2023-04-29T13:41:39;4.37;;;2.30;;
7181;SDS011;3632;42.724;23.298;2023-04-29T13:44:11;2.83;;;2.30;;
7181;SDS011;3632;42.724;23.298;2023-04-29T13:46:38;2.53;;;2.17;;
7181;SDS011;3632;42.724;23.298;2023-04-29T13:49:06;3.60;;;2.13;;
7181;SDS011;3632;42.724;23.298;2023-04-29T13:51:33;3.80;;;2.40;;
7181;SDS011;3632;42.724;23.298;2023-04-29T13:54:00;4.73;;;2.40;;
7181;SDS011;3632;42.724;23.298;2023-04-29T13:56:27;7.03;;;3.90;;
7181;SDS011;3632;42.724;23.298;2023-04-29T13:58:56;3.33;;;1.77;;
7181;SDS011;3632;42.724;23.298;2023-04-29T14:01:25;5.07;;;2.10;;
7181;SDS011;3632;42.724;23.298;2023-04-29T14:03:53;4.13;;;2.40;;
7181;SDS011;3632;42.724;23.298;2023-04-29T14:06:23;3.47;;;2.10;;
7181;SDS011;3632;42.724;23.298;2023-04-29T14:08:52;2.47;;;1.90;;
7181;SDS011;3632;42.724;23.298;2023-04-29T14:11:19;2.80;;;2.00;;
7181;SDS011;3632;42.724;23.298;2023-04-29T14:13:46;2.47;;;2.10;;
7181;SDS011;3632;42.724;23.298;2023-04-29T14:16:14;2.90;;;2.20;;
7181;SDS011;3632;42.724;23.298;2023-04-29T14:18:42;2.27;;;2.00;;
7181;SDS011;3632;42.724;23.298;2023-04-29T14:21:09;2.60;;;2.00;;
7181;SDS011;3632;42.724;23.298;2023-04-29T14:23:36;3.90;;;1.90;;
7181;SDS011;3632;42.724;23.298;2023-04-29T14:26:03;3.20;;;1.97;;
7181;SDS011;3632;42.724;23.298;2023-04-29T14:28:31;2.47;;;1.93;;
7181;SDS011;3632;42.724;23.298;2023-04-29T14:30:58;2.50;;;2.00;;
7181;SDS011;3632;42.724;23.298;2023-04-29T14:33:25;3.40;;;2.20;;
7181;SDS011;3632;42.724;23.298;2023-04-29T14:35:53;3.80;;;2.10;;
7181;SDS011;3632;42.724;23.298;2023-04-29T14:38:20;4.33;;;2.23;;
7181;SDS011;3632;42.724;23.298;2023-04-29T14:40:47;4.37;;;2.03;;
7181;SDS011;3632;42.724;23.298;2023-04-29T14:43:14;4.70;;;2.47;;
7181;SDS011;3632;42.724;23.298;2023-04-29T14:45:41;6.87;;;2.40;;
7181;SDS011;3632;42.724;23.298;2023-04-29T14:48:09;2.83;;;2.20;;
7181;SDS011;3632;42.724;23.298;2023-04-29T14:50:36;3.13;;;2.37;;
7181;SDS011;3632;42.724;23.298;2023-04-29T14:53:04;4.30;;;2.53;;
7181;SDS011;3632;42.724;23.298;2023-04-29T14:55:32;2.57;;;2.30;;
7181;SDS011;3632;42.724;23.298;2023-04-29T14:58:00;2.73;;;2.47;;
7181;SDS011;3632;42.724;23.298;2023-04-29T15:00:29;3.93;;;2.70;;
7181;SDS011;3632;42.724;23.298;2023-04-29T15:02:55;3.93;;;2.60;;